Time;durP1;ratioP1;P1;durP2;ratioP2;P2;SDS_P1;SDS_P2;PMS_P1;PMS_P2;Temp;Humidity;BMP_temperature;BMP_pressure;BME280_temperature;BME280_humidity;BME280_pressure;Samples;Min_cycle;Max_cycle;Signal;HPM_P1;HPM_P2
2022/10/08 00:01:23;;;;;;;1.42;1.30;;;22.10;99.90;;;;;;4990543;28;20211;-72
2022/10/08 00:03:56;;;;;;;1.92;1.45;;;22.20;99.90;;;;;;4992628;28;20203;-73
2022/10/08 00:06:28;;;;;;;3.15;1.73;;;22.20;99.90;;;;;;4995195;28;20782;-76
2022/10/08 00:09:01;;;;;;;1.85;1.60;;;22.20;99.90;;;;;;4994912;28;20188;-75
2022/10/08 00:11:35;;;;;;;2.60;1.80;;;22.30;99.90;;;;;;4991465;28;20655;-75
2022/10/08 00:14:07;;;;;;;1.80;1.60;;;22.40;99.90;;;;;;4992098;28;20206;-75
2022/10/08 00:16:40;;;;;;;1.50;1.40;;;22.30;99.90;;;;;;4994497;28;20225;-76
2022/10/08 00:19:13;;;;;;;1.73;1.38;;;22.30;99.90;;;;;;4994205;28;20663;-76
2022/10/08 00:21:45;;;;;;;4.35;2.10;;;22.30;99.90;;;;;;4993989;28;20717;-72
2022/10/08 00:24:17;;;;;;;4.00;1.58;;;22.20;99.90;;;;;;4994941;28;20191;-72
2022/10/08 00:26:50;;;;;;;1.73;1.33;;;22.10;99.90;;;;;;4992734;28;20577;-75
2022/10/08 00:29:22;;;;;;;2.70;1.20;;;22.10;99.90;;;;;;4994607;28;20200;-72
2022/10/08 00:31:53;;;;;;;1.40;1.30;;;22.10;99.90;;;;;;4990601;28;20793;-72
2022/10/08 00:34:26;;;;;;;1.40;1.30;;;22.10;99.90;;;;;;4988493;28;20222;-73
2022/10/08 00:36:57;;;;;;;2.08;1.00;;;22.20;99.90;;;;;;4993372;28;20239;-73
2022/10/08 00:39:28;;;;;;;1.50;1.10;;;22.20;99.90;;;;;;4992805;28;20675;-74
2022/10/08 00:42:01;;;;;;;1.40;1.00;;;22.20;99.90;;;;;;4994194;28;20215;-75
2022/10/08 00:44:56;;;;;;;2.53;1.50;;;22.30;99.90;;;;;;4994761;28;20202;-75
2022/10/08 00:47:42;;;;;;;2.13;1.20;;;22.40;99.90;;;;;;4992832;28;20567;-73
2022/10/08 00:50:17;;;;;;;1.45;1.33;;;22.40;99.90;;;;;;4993654;28;20194;-74
2022/10/08 00:52:50;;;;;;;2.28;1.08;;;22.40;99.90;;;;;;4994119;28;20676;-74
2022/10/08 00:55:26;;;;;;;2.95;1.20;;;22.40;99.90;;;;;;4990860;28;20214;-75
2022/10/08 00:58:13;;;;;;;1.83;0.93;;;22.50;99.90;;;;;;4989624;28;20199;-74
2022/10/08 01:00:44;;;;;;;1.13;0.95;;;22.50;99.90;;;;;;4986178;28;20199;-74
2022/10/08 01:03:16;;;;;;;1.30;1.20;;;22.50;99.90;;;;;;4984740;28;20204;-73
2022/10/08 01:05:57;;;;;;;0.88;0.75;;;22.50;99.90;;;;;;4989146;28;20203;-74
2022/10/08 01:08:35;;;;;;;0.75;0.55;;;22.50;99.90;;;;;;4988397;28;20199;-73
2022/10/08 01:11:15;;;;;;;0.95;0.70;;;22.60;99.90;;;;;;4991911;28;20548;-74
2022/10/08 01:13:57;;;;;;;1.67;0.70;;;22.70;99.90;;;;;;4990685;28;20190;-74
2022/10/08 01:16:34;;;;;;;0.70;0.57;;;22.80;99.90;;;;;;4991306;28;20194;-75
2022/10/08 01:19:23;;;;;;;1.25;0.60;;;22.80;99.90;;;;;;4991214;28;20575;-75
2022/10/08 01:22:04;;;;;;;1.40;0.90;;;22.80;99.90;;;;;;4991486;28;20241;-74
2022/10/08 01:27:42;;;;;;;0.90;0.90;;;22.80;99.90;;;;;;4986632;28;20678;-74
2022/10/08 01:30:15;;;;;;;0.88;0.80;;;22.70;99.90;;;;;;4989742;28;20724;-75
2022/10/08 01:32:51;;;;;;;0.70;0.70;;;22.60;99.90;;;;;;4989196;28;20210;-75
2022/10/08 01:35:26;;;;;;;1.05;0.80;;;22.50;99.90;;;;;;4990200;28;20221;-75
2022/10/08 01:37:59;;;;;;;0.77;0.77;;;22.40;99.90;;;;;;4985271;28;20230;-73
2022/10/08 01:40:34;;;;;;;1.55;0.73;;;22.30;99.90;;;;;;4988630;28;20207;-75
2022/10/08 01:43:10;;;;;;;0.88;0.88;;;22.20;99.90;;;;;;4991434;28;20226;-72
2022/10/08 01:45:45;;;;;;;0.93;0.68;;;22.20;99.90;;;;;;4988823;28;20204;-75
2022/10/08 01:48:20;;;;;;;0.73;0.73;;;22.10;99.90;;;;;;4990532;28;20196;-71
2022/10/08 01:50:57;;;;;;;1.05;0.90;;;22.00;99.90;;;;;;4989551;28;20581;-75
2022/10/08 01:53:32;;;;;;;1.85;0.85;;;22.00;99.90;;;;;;4986111;28;20199;-75
2022/10/08 01:56:05;;;;;;;2.35;0.80;;;22.00;99.90;;;;;;4988146;28;20222;-75
2022/10/08 01:58:46;;;;;;;2.20;1.08;;;22.00;99.90;;;;;;4987868;28;20199;-75
2022/10/08 02:01:22;;;;;;;3.08;1.00;;;22.00;99.90;;;;;;4991195;28;20287;-75
2022/10/08 02:06:46;;;;;;;1.92;1.30;;;22.00;99.90;;;;;;4991978;28;20666;-72
2022/10/08 02:09:17;;;;;;;2.88;1.30;;;21.80;99.90;;;;;;4992491;28;20195;-74
2022/10/08 02:11:48;;;;;;;1.80;1.20;;;21.80;99.90;;;;;;4991661;28;20203;-74
2022/10/08 02:14:24;;;;;;;2.20;1.50;;;21.70;99.90;;;;;;4986455;28;20203;-75
2022/10/08 02:17:03;;;;;;;1.77;1.30;;;21.60;99.90;;;;;;4988596;28;20196;-75
2022/10/08 02:19:45;;;;;;;3.38;1.50;;;21.50;99.90;;;;;;4990904;28;20191;-75
2022/10/08 02:22:21;;;;;;;2.03;1.40;;;21.40;99.90;;;;;;4992194;28;20218;-74
2022/10/08 02:24:54;;;;;;;2.20;1.30;;;21.30;99.90;;;;;;4987267;28;20230;-73
2022/10/08 02:27:32;;;;;;;2.25;1.40;;;21.20;99.90;;;;;;4988085;28;20200;-73
2022/10/08 02:30:11;;;;;;;3.30;1.50;;;21.10;99.90;;;;;;4990545;28;20191;-74
2022/10/08 02:32:49;;;;;;;4.38;1.55;;;21.00;99.90;;;;;;4985729;28;20211;-72
2022/10/08 02:35:24;;;;;;;1.40;1.20;;;20.90;99.90;;;;;;4984977;28;20215;-74
2022/10/08 02:37:59;;;;;;;1.92;1.35;;;20.90;99.90;;;;;;4990487;28;20233;-72
2022/10/08 02:40:32;;;;;;;2.60;1.42;;;20.90;99.90;;;;;;4994709;28;20195;-72
2022/10/08 02:43:11;;;;;;;1.45;1.10;;;20.90;99.90;;;;;;4994608;28;20220;-73
2022/10/08 02:45:47;;;;;;;1.77;1.35;;;20.90;99.90;;;;;;4991912;28;20199;-73
2022/10/08 02:48:21;;;;;;;2.03;1.40;;;20.90;99.90;;;;;;4988917;28;20250;-72
2022/10/08 02:50:54;;;;;;;1.60;1.50;;;21.00;99.90;;;;;;4993490;28;20210;-74
2022/10/08 02:53:27;;;;;;;2.65;1.50;;;21.00;99.90;;;;;;4993745;28;20192;-73
2022/10/08 02:56:07;;;;;;;1.83;1.35;;;20.90;99.90;;;;;;4996658;28;20184;-73
2022/10/08 02:58:38;;;;;;;2.17;1.50;;;20.90;99.90;;;;;;4995370;28;20573;-73
2022/10/08 03:01:22;;;;;;;2.20;1.50;;;20.80;99.90;;;;;;4983084;28;20203;-73
2022/10/08 03:03:59;;;;;;;1.80;1.40;;;20.70;99.90;;;;;;4995979;28;20203;-74
2022/10/08 03:06:31;;;;;;;2.20;2.00;;;20.70;99.90;;;;;;4988664;28;20227;-73
2022/10/08 03:09:05;;;;;;;3.75;2.33;;;20.70;99.90;;;;;;4991206;28;20216;-73
2022/10/08 03:11:37;;;;;;;6.18;2.95;;;20.60;99.90;;;;;;4990853;28;20553;-72
2022/10/08 03:14:10;;;;;;;6.63;3.45;;;20.60;99.90;;;;;;4995859;28;20199;-72
2022/10/08 03:16:45;;;;;;;8.25;3.72;;;20.50;99.90;;;;;;4994720;28;20197;-73
2022/10/08 03:19:17;;;;;;;8.93;3.88;;;20.50;99.90;;;;;;4996731;28;20187;-73
2022/10/08 03:21:50;;;;;;;5.95;3.78;;;20.40;99.90;;;;;;4994648;28;20210;-72
2022/10/08 03:24:20;;;;;;;8.95;4.18;;;20.30;99.90;;;;;;4994309;28;20208;-73
2022/10/08 03:26:53;;;;;;;8.07;4.32;;;20.30;99.90;;;;;;4996655;28;20191;-72
2022/10/08 03:29:24;;;;;;;11.27;5.05;;;20.20;99.90;;;;;;4993271;28;20669;-72
2022/10/08 03:31:57;;;;;;;5.25;3.22;;;20.20;99.90;;;;;;4991898;28;21265;-73
2022/10/08 03:34:28;;;;;;;4.97;2.92;;;20.10;99.90;;;;;;4991035;28;20215;-73
2022/10/08 03:36:59;;;;;;;5.65;2.30;;;19.90;99.90;;;;;;4990048;28;20249;-73
2022/10/08 03:39:30;;;;;;;5.03;2.50;;;19.80;99.90;;;;;;4990668;28;20202;-73
2022/10/08 03:42:01;;;;;;;4.65;1.90;;;19.70;99.90;;;;;;4984556;28;20223;-71
2022/10/08 03:44:32;;;;;;;3.70;1.95;;;19.60;99.90;;;;;;4994054;28;20206;-72
2022/10/08 03:47:05;;;;;;;7.13;2.33;;;19.50;99.90;;;;;;4992641;28;20199;-72
2022/10/08 03:49:36;;;;;;;3.78;2.10;;;19.40;99.90;;;;;;4989040;28;20387;-72
2022/10/08 03:52:07;;;;;;;5.47;1.77;;;19.40;99.90;;;;;;4990084;28;20204;-72
2022/10/08 03:54:38;;;;;;;5.63;1.98;;;19.40;99.90;;;;;;4991726;28;20196;-73
2022/10/08 03:57:09;;;;;;;5.50;2.10;;;19.40;99.90;;;;;;4989038;28;20200;-72
2022/10/08 03:59:40;;;;;;;5.32;1.50;;;19.30;99.90;;;;;;4988812;28;20195;-72
2022/10/08 04:02:14;;;;;;;2.83;1.60;;;19.20;99.90;;;;;;4982265;28;20223;-72
2022/10/08 04:04:46;;;;;;;2.97;1.42;;;19.20;99.90;;;;;;4990964;28;20202;-72
2022/10/08 04:07:17;;;;;;;5.28;1.58;;;19.10;99.90;;;;;;4987193;28;20196;-72
2022/10/08 04:09:48;;;;;;;5.32;1.50;;;19.10;99.90;;;;;;4990111;28;20706;-72
2022/10/08 04:12:19;;;;;;;4.72;1.33;;;19.00;99.90;;;;;;4987527;28;20580;-72
2022/10/08 04:14:50;;;;;;;2.47;1.40;;;19.00;99.90;;;;;;4995228;28;20198;-71
2022/10/08 04:17:22;;;;;;;5.53;1.45;;;19.00;99.90;;;;;;4995672;28;20203;-71
2022/10/08 04:19:56;;;;;;;5.82;1.48;;;18.90;99.90;;;;;;4995892;28;20654;-71
2022/10/08 04:22:26;;;;;;;3.33;1.23;;;18.90;99.90;;;;;;4995356;28;20698;-71
2022/10/08 04:24:57;;;;;;;5.47;1.38;;;18.80;99.90;;;;;;4995894;28;20202;-71
2022/10/08 04:27:28;;;;;;;3.72;1.25;;;18.80;99.90;;;;;;4995641;28;20203;-71
2022/10/08 04:29:59;;;;;;;6.05;1.40;;;18.70;99.90;;;;;;4995639;28;20195;-71
2022/10/08 04:32:32;;;;;;;4.60;1.60;;;18.70;99.90;;;;;;4995622;28;20206;-71
2022/10/08 04:35:03;;;;;;;3.38;1.65;;;18.70;99.90;;;;;;4995059;28;20576;-71
2022/10/08 04:37:33;;;;;;;5.10;1.73;;;18.70;99.90;;;;;;4995139;28;20242;-70
2022/10/08 04:40:04;;;;;;;4.05;1.73;;;18.60;99.90;;;;;;4995354;28;20192;-71
2022/10/08 04:42:35;;;;;;;6.15;1.80;;;18.60;99.90;;;;;;4995401;28;20231;-71
2022/10/08 04:45:06;;;;;;;6.30;1.75;;;18.60;99.90;;;;;;4995268;28;20564;-71
2022/10/08 04:47:39;;;;;;;4.50;1.90;;;18.60;99.90;;;;;;4995290;28;20191;-72
2022/10/08 04:50:10;;;;;;;5.10;1.70;;;18.50;99.90;;;;;;4995244;28;20218;-71
2022/10/08 04:52:41;;;;;;;5.97;2.05;;;18.50;99.90;;;;;;4995281;28;20195;-71
2022/10/08 04:55:12;;;;;;;3.28;1.67;;;18.50;99.90;;;;;;4995043;28;20192;-71
2022/10/08 04:57:43;;;;;;;8.68;2.00;;;18.50;99.90;;;;;;4995086;28;20554;-71
2022/10/08 05:00:15;;;;;;;6.78;1.70;;;18.40;99.90;;;;;;4993840;28;20682;-71
2022/10/08 05:02:47;;;;;;;4.05;1.70;;;18.40;99.90;;;;;;4994862;28;20717;-71
2022/10/08 05:05:18;;;;;;;6.00;1.95;;;18.40;99.90;;;;;;4994945;28;20195;-71
2022/10/08 05:07:49;;;;;;;9.98;2.17;;;18.40;99.90;;;;;;4995157;28;20196;-71
2022/10/08 05:10:20;;;;;;;9.43;2.15;;;18.40;99.90;;;;;;4994812;28;20203;-72
2022/10/08 05:12:51;;;;;;;4.38;1.80;;;18.40;99.90;;;;;;4994790;28;20199;-72
2022/10/08 05:15:22;;;;;;;5.63;1.90;;;18.30;99.90;;;;;;4994851;28;20192;-72
2022/10/08 05:17:56;;;;;;;7.47;2.10;;;18.30;99.90;;;;;;4995078;28;20198;-72
2022/10/08 05:20:27;;;;;;;6.68;1.75;;;18.20;99.90;;;;;;4994844;28;20198;-72
2022/10/08 05:22:58;;;;;;;6.38;1.73;;;18.20;99.90;;;;;;4994543;28;20219;-72
2022/10/08 05:25:31;;;;;;;4.28;1.90;;;18.20;99.90;;;;;;4994847;28;20539;-72
2022/10/08 05:28:03;;;;;;;5.53;2.00;;;18.20;99.90;;;;;;4994557;28;20254;-72
2022/10/08 05:30:33;;;;;;;6.45;2.08;;;18.20;99.90;;;;;;4994485;28;20203;-72
2022/10/08 05:33:06;;;;;;;5.97;1.73;;;18.20;99.90;;;;;;4994647;28;20286;-72
2022/10/08 05:35:40;;;;;;;7.70;2.20;;;18.20;99.90;;;;;;4993649;28;20219;-72
2022/10/08 05:38:11;;;;;;;7.25;2.00;;;18.20;99.90;;;;;;4974851;28;20343;-73
2022/10/08 05:40:45;;;;;;;4.65;1.85;;;18.20;99.90;;;;;;4982907;28;20662;-72
2022/10/08 05:43:16;;;;;;;6.65;1.90;;;18.20;99.90;;;;;;4994394;28;20220;-72
2022/10/08 05:45:53;;;;;;;6.47;2.03;;;18.20;99.90;;;;;;4994314;28;20194;-72
2022/10/08 05:48:25;;;;;;;6.82;2.17;;;18.20;99.90;;;;;;4994651;28;20198;-72
2022/10/08 05:50:56;;;;;;;6.63;1.80;;;18.20;99.90;;;;;;4994080;28;20195;-72
2022/10/08 05:53:27;;;;;;;5.32;1.98;;;18.20;99.90;;;;;;4994102;28;20198;-72
2022/10/08 05:56:03;;;;;;;6.90;2.08;;;18.10;99.90;;;;;;4993990;28;20286;-72
2022/10/08 05:58:35;;;;;;;7.40;1.98;;;18.10;99.90;;;;;;4994150;28;20241;-72
2022/10/08 06:01:07;;;;;;;6.95;1.92;;;18.00;99.90;;;;;;4994093;28;20196;-72
2022/10/08 06:03:40;;;;;;;10.93;2.10;;;18.00;99.90;;;;;;4993719;28;20245;-72
2022/10/08 06:06:12;;;;;;;11.52;2.17;;;18.00;99.90;;;;;;4994036;28;20195;-72
2022/10/08 06:08:43;;;;;;;8.02;1.98;;;17.90;99.90;;;;;;4993986;28;20201;-72
2022/10/08 06:11:14;;;;;;;10.98;2.13;;;17.90;99.90;;;;;;4993992;28;20596;-72
2022/10/08 06:13:45;;;;;;;10.75;2.35;;;17.90;99.90;;;;;;4993035;28;20191;-72
2022/10/08 06:16:16;;;;;;;8.57;2.58;;;17.90;99.90;;;;;;4993570;28;20666;-73
2022/10/08 06:18:49;;;;;;;9.05;2.30;;;17.90;99.90;;;;;;4993671;28;20188;-73
2022/10/08 06:21:21;;;;;;;7.95;2.53;;;17.90;99.90;;;;;;4993802;28;20199;-73
2022/10/08 06:23:54;;;;;;;9.98;2.20;;;17.90;99.90;;;;;;4993697;28;20582;-73
2022/10/08 06:26:25;;;;;;;6.75;2.00;;;17.90;99.90;;;;;;4994129;28;20191;-73
2022/10/08 06:28:56;;;;;;;11.02;2.67;;;17.90;99.90;;;;;;4993848;28;20229;-73
2022/10/08 06:31:28;;;;;;;11.40;2.38;;;17.90;99.90;;;;;;4993874;28;20196;-73
2022/10/08 06:34:01;;;;;;;6.97;2.42;;;17.90;99.90;;;;;;4993131;28;20188;-73
2022/10/08 06:36:33;;;;;;;8.73;2.50;;;17.80;99.90;;;;;;4993288;28;20235;-72
2022/10/08 06:39:05;;;;;;;6.97;2.63;;;17.80;99.90;;;;;;4993732;28;20195;-72
2022/10/08 06:41:36;;;;;;;8.00;1.92;;;17.80;99.90;;;;;;4993715;28;20206;-73
2022/10/08 06:44:09;;;;;;;10.85;2.00;;;17.70;99.90;;;;;;4993625;28;20291;-73
2022/10/08 06:46:41;;;;;;;9.32;1.83;;;17.60;99.90;;;;;;4993506;28;20548;-73
2022/10/08 06:49:15;;;;;;;8.05;1.98;;;17.50;99.90;;;;;;4993903;28;20212;-73
2022/10/08 06:51:46;;;;;;;3.60;1.50;;;17.50;99.90;;;;;;4993672;28;20675;-73
2022/10/08 06:54:17;;;;;;;5.80;1.60;;;17.40;99.90;;;;;;4993376;28;20196;-73
2022/10/08 06:56:48;;;;;;;7.25;1.80;;;17.30;99.90;;;;;;4993514;28;20554;-73
2022/10/08 06:59:18;;;;;;;6.60;1.80;;;17.30;99.90;;;;;;4993614;28;20196;-73
2022/10/08 07:01:49;;;;;;;6.53;1.92;;;17.30;99.90;;;;;;4993307;28;20198;-73
2022/10/08 07:04:23;;;;;;;6.60;1.90;;;17.30;99.90;;;;;;4993493;28;20228;-74
2022/10/08 07:06:57;;;;;;;8.43;2.55;;;17.40;99.90;;;;;;4993566;28;20608;-73
2022/10/08 07:09:28;;;;;;;9.10;2.15;;;17.40;99.90;;;;;;4993548;28;20207;-73
2022/10/08 07:11:59;;;;;;;10.90;2.40;;;17.50;99.90;;;;;;4993625;28;20213;-73
2022/10/08 07:14:30;;;;;;;8.63;2.20;;;17.50;99.90;;;;;;4993347;28;20196;-74
2022/10/08 07:17:01;;;;;;;10.38;2.17;;;17.50;99.90;;;;;;4987750;28;20219;-75
2022/10/08 07:19:33;;;;;;;11.38;2.40;;;17.40;99.90;;;;;;4991382;28;20235;-74
2022/10/08 07:22:04;;;;;;;12.02;2.22;;;17.40;99.90;;;;;;4991267;28;20203;-74
2022/10/08 07:24:35;;;;;;;13.23;2.22;;;17.30;99.90;;;;;;4994682;28;20225;-73
2022/10/08 07:27:06;;;;;;;9.98;2.45;;;17.30;99.90;;;;;;4992565;28;20216;-74
2022/10/08 07:29:37;;;;;;;16.30;2.92;;;17.30;99.90;;;;;;4993605;28;20208;-73
2022/10/08 07:32:08;;;;;;;6.85;2.33;;;17.30;99.90;;;;;;4991183;28;20208;-74
2022/10/08 07:34:41;;;;;;;10.18;2.33;;;17.30;99.90;;;;;;4992243;28;20231;-74
2022/10/08 07:37:12;;;;;;;9.25;2.45;;;17.30;99.90;;;;;;4995550;28;20695;-74
2022/10/08 07:39:43;;;;;;;11.63;2.75;;;17.30;99.90;;;;;;4994795;28;20282;-74
2022/10/08 07:42:14;;;;;;;14.18;2.40;;;17.30;99.90;;;;;;4996266;28;20219;-75
2022/10/08 07:44:45;;;;;;;11.40;2.42;;;17.20;99.90;;;;;;4993825;28;20330;-74
2022/10/08 07:47:16;;;;;;;8.98;2.45;;;17.20;99.90;;;;;;4995722;28;20746;-74
2022/10/08 07:49:49;;;;;;;7.95;2.03;;;17.10;99.90;;;;;;4995954;28;20200;-74
2022/10/08 07:52:20;;;;;;;15.30;2.60;;;17.10;99.90;;;;;;4994988;28;20199;-74
2022/10/08 07:54:51;;;;;;;13.95;2.50;;;17.00;99.90;;;;;;4995922;28;20191;-75
2022/10/08 07:57:22;;;;;;;16.15;3.85;;;17.00;99.90;;;;;;4995995;28;20222;-74
2022/10/08 07:59:53;;;;;;;19.80;5.10;;;17.00;99.90;;;;;;4995939;28;20280;-74
2022/10/08 08:02:24;;;;;;;14.48;3.60;;;17.00;99.90;;;;;;4990920;28;20608;-73
2022/10/08 08:04:57;;;;;;;11.57;2.08;;;16.90;99.90;;;;;;4989577;28;20219;-73
2022/10/08 08:07:28;;;;;;;11.88;1.90;;;16.90;99.90;;;;;;4989879;28;20196;-73
2022/10/08 08:09:58;;;;;;;8.55;1.70;;;16.80;99.90;;;;;;4987080;28;20192;-73
2022/10/08 08:12:29;;;;;;;10.98;2.15;;;16.70;99.90;;;;;;4989310;28;20568;-73
2022/10/08 08:15:00;;;;;;;4.30;1.80;;;16.70;99.90;;;;;;4990463;28;20196;-73
2022/10/08 08:17:31;;;;;;;8.20;1.95;;;16.70;99.90;;;;;;4988023;28;20195;-74
2022/10/08 08:20:04;;;;;;;9.90;1.77;;;16.70;99.90;;;;;;4987819;28;20227;-73
2022/10/08 08:22:35;;;;;;;8.75;2.10;;;16.60;99.90;;;;;;4992773;28;20196;-74
2022/10/08 08:25:06;;;;;;;6.63;1.60;;;16.60;99.90;;;;;;4981013;28;20235;-74
2022/10/08 08:27:37;;;;;;;10.98;2.17;;;16.60;99.90;;;;;;4983863;28;20214;-74
2022/10/08 08:30:09;;;;;;;10.63;1.98;;;16.50;99.90;;;;;;4993029;28;20211;-73
2022/10/08 08:32:40;;;;;;;6.68;1.67;;;16.50;99.90;;;;;;4994631;28;20196;-73
2022/10/08 08:35:13;;;;;;;8.07;1.90;;;16.50;99.90;;;;;;4990079;28;20228;-73
2022/10/08 08:37:43;;;;;;;9.82;2.03;;;16.50;99.90;;;;;;4983611;28;20702;-74
2022/10/08 08:40:14;;;;;;;10.38;2.03;;;16.50;99.90;;;;;;4995143;28;20191;-74
2022/10/08 08:42:55;;;;;;;8.70;2.17;;;16.50;99.90;;;;;;4994479;28;20195;-73
2022/10/08 08:45:29;;;;;;;9.38;1.88;;;16.50;99.90;;;;;;4992449;28;20223;-74
2022/10/08 08:48:06;;;;;;;7.10;1.88;;;16.50;99.90;;;;;;4993390;28;20278;-75
2022/10/08 08:50:42;;;;;;;12.75;2.42;;;16.50;99.90;;;;;;4995114;28;20667;-74
2022/10/08 08:53:14;;;;;;;9.93;2.22;;;16.50;99.90;;;;;;4993842;28;20207;-74
2022/10/08 08:55:46;;;;;;;12.05;2.20;;;16.60;99.90;;;;;;4988315;28;20210;-74
2022/10/08 08:58:26;;;;;;;8.13;2.10;;;16.60;99.90;;;;;;4989442;28;20207;-74
2022/10/08 09:01:01;;;;;;;14.68;2.78;;;16.60;99.90;;;;;;4992576;28;20199;-74
2022/10/08 09:03:39;;;;;;;11.18;2.45;;;16.60;99.90;;;;;;4987801;28;20199;-74
2022/10/08 09:06:16;;;;;;;11.73;2.67;;;16.70;99.90;;;;;;4990548;28;20195;-74
2022/10/08 09:08:51;;;;;;;10.60;2.50;;;16.70;99.90;;;;;;4993212;28;20195;-74
2022/10/08 09:11:23;;;;;;;13.88;2.47;;;16.70;99.90;;;;;;4979990;28;20274;-74
2022/10/08 09:13:58;;;;;;;9.65;2.85;;;16.70;99.90;;;;;;4989474;28;20199;-74
2022/10/08 09:16:30;;;;;;;9.95;2.75;;;16.70;99.90;;;;;;4990568;28;20199;-74
2022/10/08 09:19:01;;;;;;;13.10;3.00;;;16.70;99.90;;;;;;4993829;28;20184;-74
2022/10/08 09:21:36;;;;;;;10.18;2.80;;;16.70;99.90;;;;;;4983460;28;20200;-74
2022/10/08 09:24:06;;;;;;;13.48;2.63;;;16.70;99.90;;;;;;4992208;28;20273;-74
2022/10/08 09:26:38;;;;;;;13.70;2.55;;;16.70;99.90;;;;;;4992904;28;20207;-74
2022/10/08 09:29:12;;;;;;;10.70;2.28;;;16.70;99.90;;;;;;4991685;28;20204;-73
2022/10/08 09:31:48;;;;;;;7.35;1.85;;;16.70;99.90;;;;;;4987132;28;20198;-73
2022/10/08 09:34:21;;;;;;;9.98;2.35;;;16.60;99.90;;;;;;4989321;28;20222;-74
2022/10/08 09:36:56;;;;;;;7.57;1.60;;;16.50;99.90;;;;;;4991193;28;20233;-74
2022/10/08 09:39:28;;;;;;;7.95;1.45;;;16.40;99.90;;;;;;4992537;28;20205;-73
2022/10/08 09:42:16;;;;;;;5.95;1.80;;;16.40;99.90;;;;;;4980288;28;20205;-73
2022/10/08 09:44:49;;;;;;;8.43;1.92;;;16.30;99.90;;;;;;4989511;28;20234;-73
2022/10/08 09:47:21;;;;;;;7.47;1.55;;;16.30;99.90;;;;;;4992004;28;20282;-72
2022/10/08 09:50:06;;;;;;;10.38;1.55;;;16.20;99.90;;;;;;4992582;28;20191;-72
2022/10/08 09:52:41;;;;;;;8.77;1.30;;;16.20;99.90;;;;;;4990658;28;20200;-73
2022/10/08 09:55:28;;;;;;;6.53;1.48;;;16.20;99.90;;;;;;4987297;28;20203;-72
2022/10/08 09:58:02;;;;;;;10.98;1.73;;;16.10;99.90;;;;;;4991788;28;20218;-73
2022/10/08 10:00:36;;;;;;;5.78;1.73;;;16.20;99.90;;;;;;4993525;28;20192;-73
2022/10/08 10:03:08;;;;;;;8.75;1.38;;;16.10;99.90;;;;;;4992633;28;20196;-73
2022/10/08 10:05:39;;;;;;;4.78;1.23;;;16.10;99.90;;;;;;4991143;28;20686;-72
2022/10/08 10:08:47;;;;;;;4.10;1.17;;;16.00;99.90;;;;;;4992324;28;20197;-73
2022/10/08 10:11:28;;;;;;;4.78;1.20;;;15.80;99.90;;;;;;4985146;28;20811;-72
2022/10/08 10:14:04;;;;;;;4.38;1.02;;;15.80;99.90;;;;;;4990611;28;20191;-73
2022/10/08 10:16:38;;;;;;;3.95;1.08;;;15.80;99.90;;;;;;4990632;28;20199;-73
2022/10/08 10:19:14;;;;;;;3.90;1.13;;;15.80;99.90;;;;;;4992126;28;20210;-72
2022/10/08 10:21:52;;;;;;;6.05;1.20;;;15.70;99.90;;;;;;4990862;28;20196;-72
2022/10/08 10:24:51;;;;;;;4.50;1.10;;;15.70;99.90;;;;;;4986733;28;20594;-73
2022/10/08 10:27:29;;;;;;;2.30;0.90;;;15.60;99.90;;;;;;4984619;28;20200;-73
2022/10/08 10:30:08;;;;;;;5.10;1.10;;;15.60;99.90;;;;;;4991898;28;20184;-71
2022/10/08 10:32:46;;;;;;;3.55;1.02;;;15.50;99.90;;;;;;4993164;28;20191;-71
2022/10/08 10:35:24;;;;;;;4.28;1.10;;;15.50;99.90;;;;;;4988710;28;20219;-72
2022/10/08 10:38:08;;;;;;;4.72;1.00;;;15.50;99.90;;;;;;4985846;28;20325;-72
2022/10/08 10:40:44;;;;;;;6.32;0.95;;;15.50;99.90;;;;;;4991422;28;20567;-72
2022/10/08 10:43:44;;;;;;;5.25;0.98;;;15.40;99.90;;;;;;4990900;28;20195;-72
2022/10/08 10:46:28;;;;;;;4.18;0.98;;;15.40;99.90;;;;;;4991798;28;20207;-72
2022/10/08 10:48:59;;;;;;;5.95;0.90;;;15.40;99.90;;;;;;4986197;28;20609;-71
2022/10/08 10:51:41;;;;;;;7.28;1.13;;;15.30;99.90;;;;;;4984900;28;20204;-71
2022/10/08 10:54:27;;;;;;;5.72;1.20;;;15.30;99.90;;;;;;4988171;28;20610;-71
2022/10/08 10:57:04;;;;;;;4.70;1.17;;;15.30;99.90;;;;;;4988305;28;20198;-72
2022/10/08 10:59:46;;;;;;;3.13;0.93;;;15.40;99.90;;;;;;4990855;28;20195;-72
2022/10/08 11:02:26;;;;;;;3.92;0.90;;;15.40;99.90;;;;;;4989762;28;20678;-71
2022/10/08 11:05:07;;;;;;;3.40;0.88;;;15.40;99.90;;;;;;4992780;28;20227;-71
2022/10/08 11:08:03;;;;;;;3.95;0.80;;;15.40;99.90;;;;;;4994698;28;20224;-71
2022/10/08 11:10:46;;;;;;;4.22;1.05;;;15.40;99.90;;;;;;4992322;28;20730;-72
2022/10/08 11:13:36;;;;;;;6.07;1.30;;;15.40;99.90;;;;;;4994841;28;20199;-72
2022/10/08 11:16:22;;;;;;;4.50;1.20;;;15.50;99.90;;;;;;4993642;28;20204;-71
2022/10/08 11:18:56;;;;;;;4.68;1.08;;;15.50;99.90;;;;;;4993881;28;20192;-71
2022/10/08 11:21:45;;;;;;;5.13;1.13;;;15.50;99.90;;;;;;4993135;28;20192;-72
2022/10/08 11:24:28;;;;;;;5.45;1.13;;;15.50;99.90;;;;;;4994433;28;20566;-71
2022/10/08 11:27:07;;;;;;;6.85;1.13;;;15.50;99.90;;;;;;4996262;28;20207;-72
2022/10/08 11:29:45;;;;;;;4.88;1.00;;;15.40;99.90;;;;;;4996052;28;20191;-71
2022/10/08 11:32:18;;;;;;;7.05;1.38;;;15.50;99.90;;;;;;4992974;28;20202;-72
2022/10/08 11:34:56;;;;;;;6.10;1.20;;;15.50;99.90;;;;;;4995434;28;20222;-72
2022/10/08 11:37:32;;;;;;;8.63;1.23;;;15.50;99.90;;;;;;4991546;28;20694;-72
2022/10/08 11:40:15;;;;;;;4.63;1.00;;;15.50;99.90;;;;;;4995847;28;20195;-72
2022/10/08 11:42:53;;;;;;;6.05;1.40;;;15.50;99.90;;;;;;4995838;28;20278;-72
2022/10/08 11:45:38;;;;;;;2.70;1.20;;;15.50;99.90;;;;;;4992122;28;20222;-72
2022/10/08 11:48:33;;;;;;;4.63;1.08;;;15.50;99.90;;;;;;4994181;28;20553;-72
2022/10/08 11:51:37;;;;;;;4.97;1.33;;;15.50;99.90;;;;;;4994512;28;20187;-71
2022/10/08 11:54:18;;;;;;;8.93;1.60;;;15.60;99.90;;;;;;4991047;28;20195;-72
2022/10/08 11:56:50;;;;;;;4.55;1.33;;;15.60;99.90;;;;;;4989795;28;20210;-71
2022/10/08 11:59:33;;;;;;;8.70;1.40;;;15.60;99.90;;;;;;4994499;28;20196;-72
2022/10/08 12:02:08;;;;;;;7.28;1.42;;;15.50;99.90;;;;;;4994470;28;20192;-71
2022/10/08 12:04:41;;;;;;;5.55;1.10;;;15.50;99.90;;;;;;4995859;28;20215;-71
2022/10/08 12:07:24;;;;;;;6.40;1.15;;;15.50;99.90;;;;;;4990761;28;20677;-71
2022/10/08 12:10:28;;;;;;;7.13;1.30;;;15.60;99.90;;;;;;4990499;28;20195;-71
2022/10/08 12:13:31;;;;;;;4.97;1.20;;;15.60;99.90;;;;;;4993854;28;20274;-72
2022/10/08 12:16:06;;;;;;;10.27;1.25;;;15.60;99.90;;;;;;4995117;28;20187;-72
2022/10/08 12:18:56;;;;;;;7.53;1.20;;;15.70;99.90;;;;;;4995186;28;20278;-72
2022/10/08 12:21:55;;;;;;;5.63;1.20;;;15.70;99.90;;;;;;4990805;28;20205;-72
2022/10/08 12:24:57;;;;;;;7.20;1.35;;;15.70;99.90;;;;;;4991851;28;20183;-72
2022/10/08 12:27:36;;;;;;;8.27;1.05;;;15.70;99.90;;;;;;4991957;28;20196;-72
2022/10/08 12:30:10;;;;;;;7.22;1.58;;;15.70;99.90;;;;;;4993024;28;20234;-72
2022/10/08 12:33:00;;;;;;;9.48;1.42;;;15.80;99.90;;;;;;4987206;28;20572;-72
2022/10/08 12:35:38;;;;;;;3.08;1.00;;;15.70;99.90;;;;;;4987103;28;20228;-72
2022/10/08 12:38:34;;;;;;;5.85;1.10;;;15.70;99.90;;;;;;4990120;28;20230;-72
2022/10/08 12:41:19;;;;;;;3.75;1.02;;;15.70;99.90;;;;;;4991488;28;20219;-72
2022/10/08 12:43:59;;;;;;;3.90;1.20;;;15.70;99.90;;;;;;4992068;28;20674;-72
2022/10/08 12:46:41;;;;;;;5.97;1.00;;;15.60;99.90;;;;;;4987324;28;20223;-72
2022/10/08 12:49:23;;;;;;;5.72;1.17;;;15.50;99.90;;;;;;4987298;28;20199;-71
2022/10/08 12:52:02;;;;;;;3.40;1.20;;;15.50;99.90;;;;;;4990033;28;20195;-71
2022/10/08 12:54:34;;;;;;;7.30;1.20;;;15.50;99.90;;;;;;4991468;28;20203;-72
2022/10/08 12:57:11;;;;;;;1.75;0.85;;;15.50;99.90;;;;;;4995092;28;20203;-71
2022/10/08 12:59:43;;;;;;;3.50;0.95;;;15.50;99.90;;;;;;4995165;28;20647;-71
2022/10/08 13:02:36;;;;;;;4.88;0.80;;;15.50;99.90;;;;;;4993987;28;20556;-71
2022/10/08 13:05:16;;;;;;;1.35;0.70;;;15.40;99.90;;;;;;4994112;28;20618;-71
2022/10/08 13:07:49;;;;;;;1.25;0.60;;;15.40;99.90;;;;;;4994135;28;20195;-71
2022/10/08 13:10:23;;;;;;;0.70;0.40;;;15.30;99.90;;;;;;4994716;28;20211;-72
2022/10/08 13:13:05;;;;;;;0.57;0.40;;;15.30;99.90;;;;;;4994736;28;20203;-72
2022/10/08 13:15:36;;;;;;;0.57;0.40;;;15.20;99.90;;;;;;4994913;28;20192;-72
2022/10/08 13:18:16;;;;;;;1.92;0.45;;;15.20;99.90;;;;;;4995128;28;20630;-71
2022/10/08 13:20:59;;;;;;;0.82;0.50;;;15.20;99.90;;;;;;4993576;28;20681;-71
2022/10/08 13:23:36;;;;;;;2.67;0.50;;;15.20;99.90;;;;;;4994600;28;20662;-72
2022/10/08 13:26:31;;;;;;;1.30;0.40;;;15.10;99.90;;;;;;4994468;28;20231;-71
2022/10/08 13:29:20;;;;;;;0.40;0.30;;;15.00;99.90;;;;;;4988515;28;20671;-71
2022/10/08 13:31:56;;;;;;;0.95;0.30;;;14.90;99.90;;;;;;4994339;28;20203;-71
2022/10/08 13:34:28;;;;;;;0.40;0.30;;;14.90;99.90;;;;;;4993239;28;20219;-72